sensor_id;sensor_type;location;lat;lon;timestamp;pressure;altitude;pressure_sealevel;temperature;humidity
22259;BME280;11298;46.034;14.496;2022-07-22T00:00:18;98339.63;;;24.40;56.37
22259;BME280;11298;46.034;14.496;2022-07-22T00:02:44;98335.13;;;24.44;56.54
22259;BME280;11298;46.034;14.496;2022-07-22T00:05:11;98329.41;;;24.35;56.46
22259;BME280;11298;46.034;14.496;2022-07-22T00:07:39;98324.69;;;24.17;57.14
22259;BME280;11298;46.034;14.496;2022-07-22T00:10:07;98323.25;;;24.20;57.53
22259;BME280;11298;46.034;14.496;2022-07-22T00:12:35;98332.38;;;24.25;57.73
22259;BME280;11298;46.034;14.496;2022-07-22T00:15:03;98316.50;;;24.07;57.73
22259;BME280;11298;46.034;14.496;2022-07-22T00:17:30;98313.50;;;24.03;57.92
22259;BME280;11298;46.034;14.496;2022-07-22T00:19:57;98305.16;;;23.85;58.14
22259;BME280;11298;46.034;14.496;2022-07-22T00:22:24;98304.88;;;23.86;57.94
22259;BME280;11298;46.034;14.496;2022-07-22T00:24:51;98308.31;;;23.97;58.00
22259;BME280;11298;46.034;14.496;2022-07-22T00:27:18;98313.13;;;24.10;57.71
22259;BME280;11298;46.034;14.496;2022-07-22T00:29:45;98318.75;;;24.24;57.05
22259;BME280;11298;46.034;14.496;2022-07-22T00:32:12;98312.66;;;24.03;57.90
22259;BME280;11298;46.034;14.496;2022-07-22T00:34:39;98321.34;;;23.96;58.00
22259;BME280;11298;46.034;14.496;2022-07-22T00:37:06;98321.06;;;23.98;58.26
22259;BME280;11298;46.034;14.496;2022-07-22T00:39:34;98323.22;;;24.01;58.36
22259;BME280;11298;46.034;14.496;2022-07-22T00:42:02;98324.41;;;23.95;57.86
22259;BME280;11298;46.034;14.496;2022-07-22T00:44:29;98326.66;;;23.74;58.25
22259;BME280;11298;46.034;14.496;2022-07-22T00:47:04;98313.56;;;23.27;60.06
22259;BME280;11298;46.034;14.496;2022-07-22T00:49:31;98316.72;;;23.20;60.13
22259;BME280;11298;46.034;14.496;2022-07-22T00:51:58;98322.03;;;23.17;60.68
22259;BME280;11298;46.034;14.496;2022-07-22T00:54:25;98321.44;;;23.20;60.50
22259;BME280;11298;46.034;14.496;2022-07-22T00:56:54;98325.78;;;23.26;60.57
22259;BME280;11298;46.034;14.496;2022-07-22T00:59:21;98323.31;;;23.24;60.72
22259;BME280;11298;46.034;14.496;2022-07-22T01:01:49;98326.03;;;23.29;60.24
22259;BME280;11298;46.034;14.496;2022-07-22T01:04:17;98329.31;;;23.31;60.64
22259;BME280;11298;46.034;14.496;2022-07-22T01:06:44;98333.50;;;23.29;60.79
22259;BME280;11298;46.034;14.496;2022-07-22T01:09:12;98339.59;;;23.31;60.80
22259;BME280;11298;46.034;14.496;2022-07-22T01:11:40;98338.75;;;23.30;60.77
22259;BME280;11298;46.034;14.496;2022-07-22T01:14:08;98342.66;;;23.29;60.66
22259;BME280;11298;46.034;14.496;2022-07-22T01:16:35;98339.88;;;23.29;60.44
22259;BME280;11298;46.034;14.496;2022-07-22T01:19:03;98338.75;;;23.30;59.64
22259;BME280;11298;46.034;14.496;2022-07-22T01:21:31;98334.63;;;23.28;60.24
22259;BME280;11298;46.034;14.496;2022-07-22T01:24:00;98333.19;;;23.06;60.65
22259;BME280;11298;46.034;14.496;2022-07-22T01:26:27;98338.56;;;22.93;61.31
22259;BME280;11298;46.034;14.496;2022-07-22T01:28:54;98338.81;;;22.96;61.45
22259;BME280;11298;46.034;14.496;2022-07-22T01:31:22;98344.56;;;23.05;61.44
22259;BME280;11298;46.034;14.496;2022-07-22T01:33:49;98331.25;;;23.07;62.95
22259;BME280;11298;46.034;14.496;2022-07-22T01:36:16;98323.75;;;23.08;65.04
22259;BME280;11298;46.034;14.496;2022-07-22T01:38:44;98324.63;;;23.03;64.78
22259;BME280;11298;46.034;14.496;2022-07-22T01:41:12;98321.63;;;22.99;65.31
22259;BME280;11298;46.034;14.496;2022-07-22T01:43:39;98318.66;;;22.91;64.48
22259;BME280;11298;46.034;14.496;2022-07-22T01:46:06;98312.41;;;22.80;65.09
22259;BME280;11298;46.034;14.496;2022-07-22T01:48:38;98322.13;;;22.72;65.41
22259;BME280;11298;46.034;14.496;2022-07-22T01:51:05;98327.97;;;22.66;65.09
22259;BME280;11298;46.034;14.496;2022-07-22T01:53:32;98328.03;;;22.61;65.79
22259;BME280;11298;46.034;14.496;2022-07-22T01:56:00;98320.66;;;22.51;64.69
22259;BME280;11298;46.034;14.496;2022-07-22T01:58:29;98323.78;;;22.39;66.16
22259;BME280;11298;46.034;14.496;2022-07-22T02:01:05;98325.06;;;22.13;66.83
22259;BME280;11298;46.034;14.496;2022-07-22T02:03:32;98320.69;;;21.97;66.90
22259;BME280;11298;46.034;14.496;2022-07-22T02:06:00;98320.66;;;22.07;67.11
22259;BME280;11298;46.034;14.496;2022-07-22T02:08:28;98326.09;;;22.22;66.98
22259;BME280;11298;46.034;14.496;2022-07-22T02:11:05;98332.16;;;22.24;67.56
22259;BME280;11298;46.034;14.496;2022-07-22T02:13:36;98328.91;;;22.17;67.69
22259;BME280;11298;46.034;14.496;2022-07-22T02:16:03;98323.88;;;22.19;67.29
22259;BME280;11298;46.034;14.496;2022-07-22T02:18:32;98324.44;;;22.21;67.35
22259;BME280;11298;46.034;14.496;2022-07-22T02:21:00;98318.31;;;22.29;67.40
22259;BME280;11298;46.034;14.496;2022-07-22T02:23:27;98324.41;;;22.26;66.43
22259;BME280;11298;46.034;14.496;2022-07-22T02:25:54;98319.69;;;22.27;67.28
22259;BME280;11298;46.034;14.496;2022-07-22T02:28:22;98319.94;;;22.30;66.46
22259;BME280;11298;46.034;14.496;2022-07-22T02:30:49;98323.72;;;22.05;66.50
22259;BME280;11298;46.034;14.496;2022-07-22T02:33:16;98320.66;;;22.07;66.95
22259;BME280;11298;46.034;14.496;2022-07-22T02:35:43;98325.66;;;22.05;66.72
22259;BME280;11298;46.034;14.496;2022-07-22T02:38:11;98326.72;;;22.14;66.37
22259;BME280;11298;46.034;14.496;2022-07-22T02:40:38;98330.59;;;22.13;66.81
22259;BME280;11298;46.034;14.496;2022-07-22T02:43:05;98331.41;;;22.14;67.22
22259;BME280;11298;46.034;14.496;2022-07-22T02:45:33;98321.50;;;22.08;66.52
22259;BME280;11298;46.034;14.496;2022-07-22T02:48:01;98322.31;;;22.08;66.39
22259;BME280;11298;46.034;14.496;2022-07-22T02:50:30;98323.97;;;22.09;67.18
22259;BME280;11298;46.034;14.496;2022-07-22T02:52:59;98326.47;;;22.05;66.58
22259;BME280;11298;46.034;14.496;2022-07-22T02:55:30;98318.75;;;22.02;66.47
22259;BME280;11298;46.034;14.496;2022-07-22T02:58:04;98319.56;;;21.98;66.79
22259;BME280;11298;46.034;14.496;2022-07-22T03:00:32;98321.06;;;21.80;67.03
22259;BME280;11298;46.034;14.496;2022-07-22T03:02:59;98330.22;;;21.76;67.12
22259;BME280;11298;46.034;14.496;2022-07-22T03:05:30;98328.81;;;21.78;67.39
22259;BME280;11298;46.034;14.496;2022-07-22T03:08:13;98331.28;;;21.80;66.89
22259;BME280;11298;46.034;14.496;2022-07-22T03:10:40;98334.34;;;21.78;67.21
22259;BME280;11298;46.034;14.496;2022-07-22T03:13:08;98346.53;;;21.67;67.48
22259;BME280;11298;46.034;14.496;2022-07-22T03:15:36;98346.25;;;21.68;67.92
22259;BME280;11298;46.034;14.496;2022-07-22T03:18:03;98351.25;;;21.56;68.54
22259;BME280;11298;46.034;14.496;2022-07-22T03:20:30;98341.88;;;21.52;68.29
22259;BME280;11298;46.034;14.496;2022-07-22T03:22:57;98355.75;;;21.47;68.28
22259;BME280;11298;46.034;14.496;2022-07-22T03:25:25;98355.50;;;21.23;68.84
22259;BME280;11298;46.034;14.496;2022-07-22T03:27:52;98358.28;;;21.08;69.31
22259;BME280;11298;46.034;14.496;2022-07-22T03:30:19;98361.03;;;21.23;69.81
22259;BME280;11298;46.034;14.496;2022-07-22T03:32:46;98365.16;;;21.31;68.91
22259;BME280;11298;46.034;14.496;2022-07-22T03:35:18;98365.72;;;21.33;68.99
22259;BME280;11298;46.034;14.496;2022-07-22T03:37:46;98364.59;;;21.29;69.28
22259;BME280;11298;46.034;14.496;2022-07-22T03:40:14;98371.78;;;21.25;69.36
22259;BME280;11298;46.034;14.496;2022-07-22T03:42:42;98370.69;;;21.26;69.08
22259;BME280;11298;46.034;14.496;2022-07-22T03:45:13;98370.69;;;21.36;68.37
22259;BME280;11298;46.034;14.496;2022-07-22T03:47:40;98370.41;;;21.37;68.48
22259;BME280;11298;46.034;14.496;2022-07-22T03:50:08;98372.34;;;21.37;68.00
22259;BME280;11298;46.034;14.496;2022-07-22T03:52:35;98366.25;;;21.40;67.79
22259;BME280;11298;46.034;14.496;2022-07-22T03:55:06;98377.56;;;21.44;67.63
22259;BME280;11298;46.034;14.496;2022-07-22T03:57:34;98380.06;;;21.45;68.23
22259;BME280;11298;46.034;14.496;2022-07-22T04:00:07;98376.75;;;21.43;68.17
22259;BME280;11298;46.034;14.496;2022-07-22T04:05:15;98380.28;;;21.49;67.80
22259;BME280;11298;46.034;14.496;2022-07-22T04:07:42;98382.78;;;21.50;67.94
22259;BME280;11298;46.034;14.496;2022-07-22T04:10:10;98390.50;;;21.58;67.87
22259;BME280;11298;46.034;14.496;2022-07-22T04:12:41;98389.94;;;21.56;67.11
22259;BME280;11298;46.034;14.496;2022-07-22T04:15:22;98398.53;;;21.50;67.37
22259;BME280;11298;46.034;14.496;2022-07-22T04:17:51;98392.19;;;21.49;67.40
22259;BME280;11298;46.034;14.496;2022-07-22T04:20:19;98395.50;;;21.51;67.48
22259;BME280;11298;46.034;14.496;2022-07-22T04:23:04;98388.63;;;21.38;67.53
22259;BME280;11298;46.034;14.496;2022-07-22T04:25:32;98390.00;;;21.46;67.82
22259;BME280;11298;46.034;14.496;2022-07-22T04:27:59;98394.16;;;21.28;68.51
22259;BME280;11298;46.034;14.496;2022-07-22T04:30:26;98399.69;;;21.44;68.91
22259;BME280;11298;46.034;14.496;2022-07-22T04:32:55;98396.59;;;21.55;68.46
22259;BME280;11298;46.034;14.496;2022-07-22T04:35:22;98405.97;;;21.64;67.56
22259;BME280;11298;46.034;14.496;2022-07-22T04:38:05;98403.19;;;21.64;66.83
22259;BME280;11298;46.034;14.496;2022-07-22T04:40:33;98405.44;;;21.57;67.52
22259;BME280;11298;46.034;14.496;2022-07-22T04:43:00;98406.50;;;21.77;66.57
22259;BME280;11298;46.034;14.496;2022-07-22T04:45:27;98414.19;;;21.85;66.10
22259;BME280;11298;46.034;14.496;2022-07-22T04:47:54;98414.81;;;21.66;66.55
22259;BME280;11298;46.034;14.496;2022-07-22T04:50:21;98414.25;;;21.69;64.94
22259;BME280;11298;46.034;14.496;2022-07-22T04:52:54;98410.09;;;21.72;64.74
22259;BME280;11298;46.034;14.496;2022-07-22T04:55:22;98415.81;;;21.91;64.57
22259;BME280;11298;46.034;14.496;2022-07-22T04:57:50;98414.13;;;22.00;63.82
22259;BME280;11298;46.034;14.496;2022-07-22T05:00:18;98420.75;;;22.14;62.76
22259;BME280;11298;46.034;14.496;2022-07-22T05:02:51;98411.88;;;22.17;63.25
22259;BME280;11298;46.034;14.496;2022-07-22T05:05:19;98413.50;;;22.23;63.11
22259;BME280;11298;46.034;14.496;2022-07-22T05:07:46;98413.72;;;22.32;63.54
22259;BME280;11298;46.034;14.496;2022-07-22T05:10:14;98412.19;;;22.55;62.67
22259;BME280;11298;46.034;14.496;2022-07-22T05:12:46;98415.97;;;22.74;61.82
22259;BME280;11298;46.034;14.496;2022-07-22T05:15:14;98413.44;;;22.78;61.83
22259;BME280;11298;46.034;14.496;2022-07-22T05:17:41;98411.00;;;22.71;61.65
22259;BME280;11298;46.034;14.496;2022-07-22T05:20:21;98414.84;;;22.75;61.62
22259;BME280;11298;46.034;14.496;2022-07-22T05:22:48;98420.97;;;22.72;61.89
22259;BME280;11298;46.034;14.496;2022-07-22T05:25:21;98417.66;;;22.70;61.69
22259;BME280;11298;46.034;14.496;2022-07-22T05:27:53;98410.56;;;22.93;61.39
22259;BME280;11298;46.034;14.496;2022-07-22T05:30:40;98412.66;;;23.11;61.11
22259;BME280;11298;46.034;14.496;2022-07-22T05:33:07;98416.59;;;23.34;60.19
22259;BME280;11298;46.034;14.496;2022-07-22T05:35:53;98418.16;;;23.45;58.64
22259;BME280;11298;46.034;14.496;2022-07-22T05:38:21;98420.03;;;23.55;59.55
22259;BME280;11298;46.034;14.496;2022-07-22T05:40:48;98425.88;;;23.53;59.90
22259;BME280;11298;46.034;14.496;2022-07-22T05:43:15;98430.00;;;23.56;59.33
22259;BME280;11298;46.034;14.496;2022-07-22T05:45:42;98427.34;;;23.69;58.35
22259;BME280;11298;46.034;14.496;2022-07-22T05:48:10;98434.00;;;23.92;59.07
22259;BME280;11298;46.034;14.496;2022-07-22T05:50:37;98442.28;;;23.97;57.41
22259;BME280;11298;46.034;14.496;2022-07-22T05:53:04;98440.09;;;23.94;57.11
22259;BME280;11298;46.034;14.496;2022-07-22T05:55:32;98446.28;;;24.10;57.41
22259;BME280;11298;46.034;14.496;2022-07-22T05:57:59;98449.00;;;24.15;56.89
22259;BME280;11298;46.034;14.496;2022-07-22T06:00:26;98442.75;;;24.28;56.76
22259;BME280;11298;46.034;14.496;2022-07-22T06:02:54;98451.91;;;24.29;57.66
22259;BME280;11298;46.034;14.496;2022-07-22T06:05:21;98448.50;;;24.56;58.08
22259;BME280;11298;46.034;14.496;2022-07-22T06:08:10;98450.91;;;24.81;56.50
22259;BME280;11298;46.034;14.496;2022-07-22T06:10:43;98461.28;;;24.94;56.54
22259;BME280;11298;46.034;14.496;2022-07-22T06:13:10;98456.84;;;25.12;55.06
22259;BME280;11298;46.034;14.496;2022-07-22T06:15:39;98461.44;;;25.35;54.30
22259;BME280;11298;46.034;14.496;2022-07-22T06:18:06;98458.03;;;25.57;54.44
22259;BME280;11298;46.034;14.496;2022-07-22T06:20:33;98460.53;;;25.73;52.90
22259;BME280;11298;46.034;14.496;2022-07-22T06:23:00;98462.81;;;25.70;52.75
22259;BME280;11298;46.034;14.496;2022-07-22T06:25:28;98460.94;;;25.66;52.76
22259;BME280;11298;46.034;14.496;2022-07-22T06:28:20;98456.41;;;25.70;52.42
22259;BME280;11298;46.034;14.496;2022-07-22T06:30:47;98472.72;;;25.77;52.20
22259;BME280;11298;46.034;14.496;2022-07-22T06:33:16;98466.34;;;25.90;51.38
22259;BME280;11298;46.034;14.496;2022-07-22T06:35:43;98464.59;;;26.08;51.55
22259;BME280;11298;46.034;14.496;2022-07-22T06:38:10;98469.47;;;26.29;51.32
22259;BME280;11298;46.034;14.496;2022-07-22T06:41:10;98468.84;;;26.60;51.23
22259;BME280;11298;46.034;14.496;2022-07-22T06:43:56;98468.41;;;26.66;49.89
22259;BME280;11298;46.034;14.496;2022-07-22T06:46:45;98468.44;;;26.39;51.01
22259;BME280;11298;46.034;14.496;2022-07-22T06:49:15;98470.06;;;26.67;51.09
22259;BME280;11298;46.034;14.496;2022-07-22T06:51:44;98471.66;;;26.82;50.09
22259;BME280;11298;46.034;14.496;2022-07-22T06:54:11;98470.44;;;26.75;49.73
22259;BME280;11298;46.034;14.496;2022-07-22T06:56:39;98474.38;;;27.10;51.07
22259;BME280;11298;46.034;14.496;2022-07-22T06:59:09;98485.28;;;27.42;49.21
22259;BME280;11298;46.034;14.496;2022-07-22T07:01:36;98473.34;;;27.64;48.65
22259;BME280;11298;46.034;14.496;2022-07-22T07:04:04;98481.41;;;27.96;48.76
22259;BME280;11298;46.034;14.496;2022-07-22T07:06:31;98479.25;;;28.24;48.47
22259;BME280;11298;46.034;14.496;2022-07-22T07:09:14;98481.16;;;28.63;47.32
22259;BME280;11298;46.034;14.496;2022-07-22T07:11:48;98486.13;;;28.75;47.11
22259;BME280;11298;46.034;14.496;2022-07-22T07:14:35;98479.91;;;28.87;45.10
22259;BME280;11298;46.034;14.496;2022-07-22T07:17:03;98487.00;;;29.01;45.63
22259;BME280;11298;46.034;14.496;2022-07-22T07:19:31;98483.03;;;28.94;44.96
22259;BME280;11298;46.034;14.496;2022-07-22T07:21:59;98475.66;;;28.98;45.69
22259;BME280;11298;46.034;14.496;2022-07-22T07:24:26;98481.25;;;29.15;44.48
22259;BME280;11298;46.034;14.496;2022-07-22T07:26:53;98481.09;;;29.38;45.35
22259;BME280;11298;46.034;14.496;2022-07-22T07:29:21;98484.19;;;29.62;43.50
22259;BME280;11298;46.034;14.496;2022-07-22T07:31:52;98488.13;;;29.70;43.56
22259;BME280;11298;46.034;14.496;2022-07-22T07:34:19;98476.28;;;29.64;42.46
22259;BME280;11298;46.034;14.496;2022-07-22T07:36:46;98473.91;;;29.92;42.99
22259;BME280;11298;46.034;14.496;2022-07-22T07:39:14;98487.22;;;30.12;42.28
22259;BME280;11298;46.034;14.496;2022-07-22T07:41:42;98480.91;;;30.24;42.84
22259;BME280;11298;46.034;14.496;2022-07-22T07:44:16;98474.88;;;30.13;41.86
22259;BME280;11298;46.034;14.496;2022-07-22T07:46:43;98478.72;;;30.29;41.58
22259;BME280;11298;46.034;14.496;2022-07-22T07:49:10;98475.16;;;30.50;42.10
22259;BME280;11298;46.034;14.496;2022-07-22T07:51:37;98479.88;;;30.87;42.03
22259;BME280;11298;46.034;14.496;2022-07-22T07:54:04;98475.53;;;31.19;39.67
22259;BME280;11298;46.034;14.496;2022-07-22T07:56:36;98481.28;;;31.23;39.49
22259;BME280;11298;46.034;14.496;2022-07-22T07:59:04;98476.97;;;31.25;38.84
22259;BME280;11298;46.034;14.496;2022-07-22T08:01:51;98473.28;;;31.66;39.96
22259;BME280;11298;46.034;14.496;2022-07-22T08:04:26;98473.88;;;32.05;38.00
22259;BME280;11298;46.034;14.496;2022-07-22T08:07:12;98473.03;;;31.92;38.78
22259;BME280;11298;46.034;14.496;2022-07-22T08:09:42;98473.16;;;31.84;39.18
22259;BME280;11298;46.034;14.496;2022-07-22T08:12:38;98476.78;;;31.96;38.92
22259;BME280;11298;46.034;14.496;2022-07-22T08:15:25;98468.97;;;32.02;38.71
22259;BME280;11298;46.034;14.496;2022-07-22T08:17:53;98478.56;;;32.01;39.22
22259;BME280;11298;46.034;14.496;2022-07-22T08:20:23;98469.00;;;32.26;39.91
22259;BME280;11298;46.034;14.496;2022-07-22T08:22:52;98472.31;;;32.53;39.45
22259;BME280;11298;46.034;14.496;2022-07-22T08:25:21;98464.56;;;32.62;37.25
22259;BME280;11298;46.034;14.496;2022-07-22T08:27:48;98463.88;;;32.77;37.64
22259;BME280;11298;46.034;14.496;2022-07-22T08:30:16;98474.28;;;32.89;37.32
22259;BME280;11298;46.034;14.496;2022-07-22T08:32:44;98469.09;;;33.03;37.18
22259;BME280;11298;46.034;14.496;2022-07-22T08:35:11;98471.53;;;33.17;37.35
22259;BME280;11298;46.034;14.496;2022-07-22T08:37:39;98463.06;;;33.17;36.37
22259;BME280;11298;46.034;14.496;2022-07-22T08:40:09;98463.03;;;32.89;35.91
22259;BME280;11298;46.034;14.496;2022-07-22T08:42:40;98458.72;;;33.19;35.15
22259;BME280;11298;46.034;14.496;2022-07-22T08:45:09;98458.88;;;33.67;37.89
22259;BME280;11298;46.034;14.496;2022-07-22T08:47:46;98457.72;;;33.00;36.42
22259;BME280;11298;46.034;14.496;2022-07-22T08:50:30;98466.28;;;33.43;35.99
22259;BME280;11298;46.034;14.496;2022-07-22T08:53:03;98456.06;;;33.67;35.86
22259;BME280;11298;46.034;14.496;2022-07-22T08:55:32;98457.06;;;34.02;36.86
22259;BME280;11298;46.034;14.496;2022-07-22T08:57:59;98452.16;;;34.46;34.53
22259;BME280;11298;46.034;14.496;2022-07-22T09:00:27;98457.19;;;34.53;34.64
22259;BME280;11298;46.034;14.496;2022-07-22T09:02:54;98458.22;;;34.80;34.12
22259;BME280;11298;46.034;14.496;2022-07-22T09:05:21;98458.84;;;34.89;32.08
22259;BME280;11298;46.034;14.496;2022-07-22T09:08:09;98453.75;;;35.14;31.57
22259;BME280;11298;46.034;14.496;2022-07-22T09:10:54;98463.72;;;35.27;31.93
22259;BME280;11298;46.034;14.496;2022-07-22T09:13:51;98453.56;;;34.87;30.00
22259;BME280;11298;46.034;14.496;2022-07-22T09:16:57;98450.44;;;34.42;30.36
22259;BME280;11298;46.034;14.496;2022-07-22T09:19:32;98452.91;;;34.27;31.16
22259;BME280;11298;46.034;14.496;2022-07-22T09:22:42;98450.47;;;34.77;32.39
22259;BME280;11298;46.034;14.496;2022-07-22T09:25:34;98446.47;;;34.93;30.57
22259;BME280;11298;46.034;14.496;2022-07-22T09:28:24;98451.53;;;35.23;29.06
22259;BME280;11298;46.034;14.496;2022-07-22T09:31:24;98446.06;;;35.30;31.35
22259;BME280;11298;46.034;14.496;2022-07-22T09:34:04;98445.22;;;35.49;30.25
22259;BME280;11298;46.034;14.496;2022-07-22T09:36:57;98444.03;;;35.50;29.95
22259;BME280;11298;46.034;14.496;2022-07-22T09:39:31;98437.88;;;35.64;29.30
22259;BME280;11298;46.034;14.496;2022-07-22T09:42:03;98438.31;;;35.46;29.32
22259;BME280;11298;46.034;14.496;2022-07-22T09:44:31;98436.69;;;35.26;29.50
22259;BME280;11298;46.034;14.496;2022-07-22T09:47:05;98434.56;;;34.84;29.83
22259;BME280;11298;46.034;14.496;2022-07-22T09:49:45;98423.88;;;34.93;29.57
22259;BME280;11298;46.034;14.496;2022-07-22T09:52:35;98428.31;;;35.30;29.19
22259;BME280;11298;46.034;14.496;2022-07-22T09:55:06;98423.84;;;35.71;29.54
22259;BME280;11298;46.034;14.496;2022-07-22T09:57:36;98412.59;;;35.93;28.42
22259;BME280;11298;46.034;14.496;2022-07-22T10:00:05;98416.09;;;36.10;30.17
22259;BME280;11298;46.034;14.496;2022-07-22T10:02:50;98417.31;;;35.86;27.77
22259;BME280;11298;46.034;14.496;2022-07-22T10:05:22;98413.03;;;36.18;28.91
22259;BME280;11298;46.034;14.496;2022-07-22T10:07:51;98416.56;;;36.35;29.38
22259;BME280;11298;46.034;14.496;2022-07-22T10:10:21;98402.88;;;35.91;27.31
22259;BME280;11298;46.034;14.496;2022-07-22T10:12:51;98408.44;;;36.10;29.28
22259;BME280;11298;46.034;14.496;2022-07-22T10:15:19;98412.22;;;36.67;27.78
22259;BME280;11298;46.034;14.496;2022-07-22T10:17:50;98405.91;;;36.77;28.14
22259;BME280;11298;46.034;14.496;2022-07-22T10:20:20;98403.13;;;36.81;26.92
22259;BME280;11298;46.034;14.496;2022-07-22T10:22:56;98404.22;;;36.73;27.31
22259;BME280;11298;46.034;14.496;2022-07-22T10:25:30;98398.63;;;36.04;27.47
22259;BME280;11298;46.034;14.496;2022-07-22T10:28:03;98393.72;;;35.36;28.65
22259;BME280;11298;46.034;14.496;2022-07-22T10:30:38;98390.59;;;36.06;29.27
22259;BME280;11298;46.034;14.496;2022-07-22T10:33:17;98389.09;;;36.35;27.66
22259;BME280;11298;46.034;14.496;2022-07-22T10:38:27;98387.19;;;36.69;28.59
22259;BME280;11298;46.034;14.496;2022-07-22T10:41:05;98390.59;;;36.55;26.93
22259;BME280;11298;46.034;14.496;2022-07-22T10:43:54;98371.94;;;36.51;27.14
22259;BME280;11298;46.034;14.496;2022-07-22T10:46:55;98377.69;;;36.84;26.00
22259;BME280;11298;46.034;14.496;2022-07-22T10:49:30;98374.75;;;36.77;26.00
22259;BME280;11298;46.034;14.496;2022-07-22T10:52:12;98377.06;;;36.68;25.98
22259;BME280;11298;46.034;14.496;2022-07-22T10:55:16;98365.31;;;36.66;26.63
22259;BME280;11298;46.034;14.496;2022-07-22T10:57:44;98370.31;;;36.76;26.14
22259;BME280;11298;46.034;14.496;2022-07-22T11:00:12;98369.19;;;36.84;26.08
22259;BME280;11298;46.034;14.496;2022-07-22T11:02:40;98362.19;;;37.05;26.29
22259;BME280;11298;46.034;14.496;2022-07-22T11:05:08;98370.66;;;37.35;27.32
22259;BME280;11298;46.034;14.496;2022-07-22T11:07:44;98365.19;;;37.19;25.51
22259;BME280;11298;46.034;14.496;2022-07-22T11:10:19;98355.22;;;37.29;24.41
22259;BME280;11298;46.034;14.496;2022-07-22T11:12:59;98357.25;;;36.68;24.39
22259;BME280;11298;46.034;14.496;2022-07-22T11:15:47;98351.03;;;36.59;23.88
22259;BME280;11298;46.034;14.496;2022-07-22T11:18:18;98351.78;;;37.16;24.90
22259;BME280;11298;46.034;14.496;2022-07-22T11:20:50;98350.13;;;37.11;24.69
22259;BME280;11298;46.034;14.496;2022-07-22T11:23:50;98338.91;;;37.55;25.58
22259;BME280;11298;46.034;14.496;2022-07-22T11:26:41;98340.41;;;37.42;25.14
22259;BME280;11298;46.034;14.496;2022-07-22T11:29:40;98327.13;;;37.16;25.56
22259;BME280;11298;46.034;14.496;2022-07-22T11:32:10;98326.84;;;36.91;26.88
22259;BME280;11298;46.034;14.496;2022-07-22T11:34:40;98332.00;;;37.19;24.35
22259;BME280;11298;46.034;14.496;2022-07-22T11:37:17;98326.25;;;37.46;24.11
22259;BME280;11298;46.034;14.496;2022-07-22T11:39:45;98330.84;;;37.61;24.11
22259;BME280;11298;46.034;14.496;2022-07-22T11:42:13;98323.59;;;38.08;24.41
22259;BME280;11298;46.034;14.496;2022-07-22T11:44:40;98333.19;;;38.47;26.20
22259;BME280;11298;46.034;14.496;2022-07-22T11:47:09;98314.13;;;38.48;21.67
22259;BME280;11298;46.034;14.496;2022-07-22T11:49:38;98321.19;;;38.68;22.03
22259;BME280;11298;46.034;14.496;2022-07-22T11:52:09;98322.88;;;38.87;24.11
22259;BME280;11298;46.034;14.496;2022-07-22T11:54:40;98315.69;;;39.04;21.52
22259;BME280;11298;46.034;14.496;2022-07-22T11:57:08;98301.13;;;39.23;22.65
22259;BME280;11298;46.034;14.496;2022-07-22T11:59:35;98299.91;;;39.20;22.39
22259;BME280;11298;46.034;14.496;2022-07-22T12:02:03;98292.19;;;39.28;22.54
22259;BME280;11298;46.034;14.496;2022-07-22T12:04:33;98294.28;;;38.48;22.21
22259;BME280;11298;46.034;14.496;2022-07-22T12:07:02;98288.63;;;38.51;23.17
22259;BME280;11298;46.034;14.496;2022-07-22T12:09:32;98284.91;;;38.37;23.08
22259;BME280;11298;46.034;14.496;2022-07-22T12:12:00;98277.94;;;38.23;22.86
22259;BME280;11298;46.034;14.496;2022-07-22T12:14:30;98275.25;;;37.90;22.96
22259;BME280;11298;46.034;14.496;2022-07-22T12:19:26;98271.81;;;38.94;27.33
22259;BME280;11298;46.034;14.496;2022-07-22T12:22:11;98264.38;;;38.61;22.95
22259;BME280;11298;46.034;14.496;2022-07-22T12:24:41;98268.34;;;38.49;22.64
22259;BME280;11298;46.034;14.496;2022-07-22T12:32:10;98250.59;;;38.60;22.22
22259;BME280;11298;46.034;14.496;2022-07-22T12:34:40;98250.00;;;38.29;22.35
22259;BME280;11298;46.034;14.496;2022-07-22T12:37:29;98245.59;;;38.35;22.36
22259;BME280;11298;46.034;14.496;2022-07-22T12:40:04;98239.28;;;38.74;23.41
22259;BME280;11298;46.034;14.496;2022-07-22T12:42:34;98240.53;;;38.87;22.22
22259;BME280;11298;46.034;14.496;2022-07-22T12:50:20;98238.22;;;39.14;22.28
22259;BME280;11298;46.034;14.496;2022-07-22T12:52:49;98221.91;;;39.00;23.06
22259;BME280;11298;46.034;14.496;2022-07-22T12:55:53;98230.31;;;38.58;21.50
22259;BME280;11298;46.034;14.496;2022-07-22T12:58:26;98217.34;;;38.60;22.31
22259;BME280;11298;46.034;14.496;2022-07-22T13:00:56;98210.53;;;38.89;23.48
22259;BME280;11298;46.034;14.496;2022-07-22T13:03:24;98213.44;;;39.18;22.51
22259;BME280;11298;46.034;14.496;2022-07-22T13:05:59;98217.91;;;39.12;21.31
22259;BME280;11298;46.034;14.496;2022-07-22T13:08:27;98211.03;;;39.41;21.77
22259;BME280;11298;46.034;14.496;2022-07-22T13:11:11;98198.44;;;39.35;21.53
22259;BME280;11298;46.034;14.496;2022-07-22T13:13:38;98202.41;;;38.88;21.70
22259;BME280;11298;46.034;14.496;2022-07-22T13:16:06;98195.94;;;38.98;24.18
22259;BME280;11298;46.034;14.496;2022-07-22T13:18:34;98198.84;;;39.12;22.67
22259;BME280;11298;46.034;14.496;2022-07-22T13:21:02;98193.50;;;38.97;22.29
22259;BME280;11298;46.034;14.496;2022-07-22T13:23:29;98201.03;;;38.50;21.67
22259;BME280;11298;46.034;14.496;2022-07-22T13:25:56;98180.41;;;38.56;22.15
22259;BME280;11298;46.034;14.496;2022-07-22T13:28:23;98183.72;;;38.73;22.88
22259;BME280;11298;46.034;14.496;2022-07-22T13:30:50;98183.31;;;38.74;22.02